Latest Coastal Weather Observations for Wilsons Promontory

IDV60701

Issued at 4:41 pm EST Thursday 30 June 2016 (issued every 10 minutes, with the page automatically refreshed every 10 minutes)

About coastal observations | Map of coastal stations | Coastal observations for VIC | Marine services | Other Formats
Station Details ID: 085096 Name: WILSONS PROMONTORY LIGHTHOUSE Lat: -39.13 Lon: 146.42 Height: 95.0 m
Data from the previous 72 hours. | See also: Recent months at Wilsons Promontory
Date/Time
EST
Temp
°C
Wind Pressure Rain since
9am
mm
Weather Cloud Vis
km
Sea
Height
m
Swell
Dir  Spd
kts
Gust
kts
hPa Trend Height
m
Period
s
Dir
30/04:30pm 11.5 NNW 13 21 1004.4 - 0.4 - - - - - - -
30/04:18pm 11.4 N 15 25 1004.5 - 0.4 - - - - - - -
30/04:13pm 11.5 N 17 25 1004.4 - 0.4 - - - - - - -
30/04:00pm 11.1 N 6 14 1004.6 - 0.4 - - - - - - -
30/03:30pm 10.7 N 8 12 1004.6 - 0.4 - - - - - - -
30/03:00pm 10.9 N 8 11 1004.8 - 0.2 - - - - - - -
30/02:30pm 12.0 N 10 21 1004.7 - 0.0 - - - - - - -
30/02:00pm 12.1 N 10 20 1005.0 - 0.0 - - - - - - -
30/01:30pm 12.3 N 9 16 1005.6 - 0.0 - - - - - - -
30/01:00pm 12.0 N 9 17 1006.0 - 0.0 - - - - - - -
30/12:30pm 11.4 N 9 13 1006.7 - 0.0 - - - - - - -
30/12:00pm 10.9 NNE 9 14 1007.6 - 0.0 - - - - - - -
30/11:30am 11.1 NNE 12 17 1008.1 - 0.0 - - - - - - -
30/11:00am 11.9 N 12 20 1008.9 - 0.0 - - - - - - -
30/10:32am 11.9 N 15 25 1009.2 - 0.0 - - - - - - -
30/10:30am 11.9 N 14 25 1009.2 - 0.0 - - - - - - -
30/10:28am 11.9 N 15 25 1009.2 - 0.0 - - - - - - -
30/10:00am 11.7 N 13 21 1009.7 - 0.0 - - - - - - -
30/09:43am 11.7 N 15 29 1009.9 - 0.0 - - - - - - -
30/09:30am 11.7 NNE 12 20 1010.2 - 0.0 - - - - - - -
30/09:00am 11.6 N 13 27 1010.4 - 0.2 - - - - - - -
30/08:30am 11.2 NNE 15 25 1010.2 - 0.2 - - - - - - -
30/08:26am 11.0 NNE 15 25 1010.3 - 0.2 - - - - - - -
30/08:00am 10.5 NNE 13 20 1010.6 - 0.2 - - - - - - -
30/07:30am 10.4 N 13 22 1011.0 - 0.2 - - - - - - -
30/07:00am 10.6 NNE 10 16 1011.4 - 0.2 - - - - - - -
30/06:30am 10.7 NNE 12 22 1011.7 - 0.2 - - - - - - -
30/06:00am 10.8 NNE 11 20 1012.3 - 0.2 - - - - - - -
30/05:30am 10.9 N 10 15 1013.0 - 0.2 - - - - - - -
30/05:00am 10.8 N 10 16 1013.4 - 0.2 - - - - - - -
30/04:30am 11.0 N 10 17 1013.7 - 0.2 - - - - - - -
30/04:00am 10.7 N 10 17 1014.2 - 0.2 - - - - - - -
30/03:30am 10.5 N 7 15 1014.8 - 0.2 - - - - - - -
30/03:00am 10.8 N 6 14 1015.4 - 0.2 - - - - - - -
30/02:30am 10.9 N 8 15 1015.7 - 0.2 - - - - - - -
30/02:00am 10.9 N 6 9 1016.3 - 0.2 - - - - - - -
30/01:30am 11.2 NW 13 15 1016.6 - 0.2 - - - - - - -
30/01:00am 11.0 WNW 17 23 1017.0 - 0.2 - - - - - - -
30/12:30am 10.9 WNW 14 20 1017.5 - 0.2 - - - - - - -
30/12:00am 11.2 WNW 8 15 1018.3 - 0.2 - - - - - - -
 
Date/Time
EST
Temp
°C
Wind Pressure Rain since
9am
mm
Weather Cloud Vis
km
Sea
Height
m
Swell
Dir  Spd
kts
Gust
kts
hPa Trend Height
m
Period
s
Dir
29/11:30pm 11.4 WNW 7 14 1018.4 - 0.2 - - - - - - -
29/11:00pm 11.9 NNW 7 14 1018.4 - 0.2 - - - - - - -
29/10:30pm 11.9 NW 10 17 1018.3 - 0.2 - - - - - - -
29/10:00pm 11.7 N 8 13 1018.7 - 0.2 - - - - - - -
29/09:30pm 11.7 N 7 11 1019.1 - 0.2 - - - - - - -
29/09:00pm 11.8 N 9 14 1019.4 - 0.2 - - - - - - -
29/08:30pm 11.8 N 8 14 1019.7 - 0.2 - - - - - - -
29/08:00pm 11.7 N 9 12 1020.0 - 0.2 - - - - - - -
29/07:30pm 12.1 NNW 11 15 1020.2 - 0.2 - - - - - - -
29/07:00pm 12.3 NNW 10 18 1020.4 - 0.2 - - - - - - -
29/06:30pm 12.3 WNW 10 18 1020.4 - 0.2 - - - - - - -
29/06:13pm 12.7 WNW 15 27 1020.2 - 0.2 - - - - - - -
29/06:00pm 12.6 WNW 13 24 1020.6 - 0.2 - - - - - - -
29/05:37pm 12.6 NNW 15 25 1020.6 - 0.2 - - - - - - -
29/05:30pm 12.4 NNW 14 21 1020.9 - 0.2 - - - - - - -
29/05:00pm 12.5 N 6 12 1021.1 - 0.2 - - - - - - -
29/04:30pm 12.8 NW 7 22 1021.2 - 0.2 - - - - - - -
29/04:00pm 12.9 WNW 12 19 1021.3 - 0.2 - - - - - - -
29/03:30pm 13.2 WSW 7 13 1021.7 - 0.2 - - - - - - -
29/03:06pm 13.6 WNW 16 22 1021.7 - 0.2 - - - - - - -
29/03:00pm 13.7 WNW 6 12 1022.0 - 0.2 - - - - - - -
29/02:30pm 13.0 WNW 11 20 1022.1 - 0.2 - - - - - - -
29/02:00pm 13.0 N 6 13 1022.3 - 0.0 - - - - - - -
29/01:30pm 12.9 WNW 11 19 1022.5 - 0.0 - - - - - - -
29/01:00pm 12.5 WNW 15 27 1022.8 - 0.0 - - - - - - -
29/12:30pm 12.4 WNW 17 30 1023.3 - 0.0 - - - - - - -
29/12:00pm 12.6 WNW 15 26 1023.7 - 0.0 - - - - - - -
29/11:39am 12.5 WNW 16 28 1023.6 - 0.0 - - - - - - -
29/11:30am 12.5 W 11 26 1024.0 - 0.0 - - - - - - -
29/11:00am 12.5 WNW 14 26 1024.5 - 0.0 - - - - - - -
29/10:30am 12.6 WNW 12 23 1024.7 - 0.0 - - - - - - -
29/10:00am 12.4 W 9 20 1024.8 - 0.0 - - - - - - -
29/09:30am 12.1 NW 10 21 1024.7 - 0.0 - - - - - - -
29/09:00am 11.8 S 6 29 1024.8 - 0.0 - - - - - - -
29/08:31am 11.8 WNW 15 29 1024.3 - 0.0 - - - - - - -
29/08:30am 11.8 WNW 15 23 1024.3 - 0.0 - - - - - - -
29/08:00am 11.5 NW 11 22 1024.2 - 0.0 - - - - - - -
29/07:30am 11.3 WNW 7 27 1023.6 - 0.0 - - - - - - -
29/07:00am 11.8 WNW 18 33 1023.0 - 0.0 - - - - - - -
29/06:30am 11.9 WNW 20 40 1022.7 - 0.0 - - - - - - -
29/06:26am 11.9 WNW 20 40 1022.8 - 0.0 - - - - - - -
29/06:00am 11.9 WNW 18 29 1022.4 - 0.0 - - - - - - -
29/05:30am 11.9 WNW 19 30 1022.2 - 0.0 - - - - - - -
29/05:00am 12.0 W 19 32 1022.2 - 0.0 - - - - - - -
29/04:30am 12.0 W 21 37 1022.0 - 0.0 - - - - - - -
29/04:00am 12.1 W 23 37 1022.1 - 0.0 - - - - - - -
29/03:30am 11.9 WNW 22 37 1022.2 - 0.0 - - - - - - -
29/03:00am 11.8 WNW 22 32 1022.5 - 0.0 - - - - - - -
29/02:30am 11.7 WNW 16 32 1022.4 - 0.0 - - - - - - -
29/02:00am 11.8 WNW 18 34 1022.3 - 0.0 - - - - - - -
29/01:30am 11.8 WNW 20 39 1022.3 - 0.0 - - - - - - -
29/01:00am 11.8 WNW 23 34 1022.2 - 0.0 - - - - - - -
29/12:30am 11.9 WNW 25 37 1022.0 - 0.0 - - - - - - -
29/12:00am 11.8 WNW 26 42 1022.6 - 0.0 - - - - - - -
 
Date/Time
EST
Temp
°C
Wind Pressure Rain since
9am
mm
Weather Cloud Vis
km
Sea
Height
m
Swell
Dir  Spd
kts
Gust
kts
hPa Trend Height
m
Period
s
Dir
28/11:30pm 11.7 WNW 25 40 1022.6 - 0.0 - - - - - - -
28/11:00pm 11.8 WNW 25 36 1022.4 - 0.0 - - - - - - -
28/10:30pm 11.9 WNW 20 36 1022.9 - 0.0 - - - - - - -
28/10:19pm 12.0 WNW 15 30 1022.7 - 0.0 - - - - - - -
28/10:00pm 11.8 WNW 12 24 1022.7 - 0.0 - - - - - - -
28/09:30pm 11.9 WNW 16 33 1022.7 - 0.0 - - - - - - -
28/09:00pm 12.3 WNW 17 31 1022.9 - 0.0 - - - - - - -
28/08:30pm 12.9 WNW 21 34 1022.2 - 0.0 - - - - - - -
28/08:00pm 13.1 WNW 20 30 1022.3 - 0.0 - - - - - - -
28/07:30pm 12.9 WNW 20 33 1022.2 - 0.0 - - - - - - -
28/07:00pm 12.9 W 20 31 1022.1 - 0.0 - - - - - - -
28/06:30pm 12.9 WNW 19 31 1021.8 - 0.0 - - - - - - -
28/06:00pm 12.9 W 20 30 1021.8 - 0.0 - - - - - - -
28/05:30pm 12.7 W 22 34 1021.2 - 0.0 - - - - - - -
28/05:00pm 12.7 W 24 36 1020.5 - 0.0 - - - - - - -
28/04:30pm 12.6 W 25 37 1020.6 - 0.0 - - - - - - -
28/04:00pm 12.5 W 23 34 1020.3 - 0.0 - - - - - - -
28/03:30pm 12.5 W 24 35 1020.2 - 0.0 - - - - - - -
28/03:00pm 12.5 W 25 38 1020.0 - 0.0 - - - - - - -
28/02:30pm 12.4 W 29 40 1019.6 - 0.0 - - - - - - -
28/02:00pm 12.2 W 27 37 1019.5 - 0.0 - - - - - - -
28/01:30pm 12.2 W 28 41 1019.4 - 0.0 - - - - - - -
28/01:00pm 12.1 W 26 41 1019.6 - 0.0 - - - - - - -
28/12:30pm 12.1 W 23 36 1019.6 - 0.0 - - - - - - -
28/12:00pm 11.8 W 23 35 1020.0 - 0.0 - - - - - - -
28/11:30am 11.6 WNW 20 37 1020.3 - 0.0 - - - - - - -
28/11:00am 11.2 WNW 20 31 1020.6 - 0.0 - - - - - - -
28/10:30am 11.2 WNW 20 32 1020.3 - 0.0 - - - - - - -
28/10:00am 11.2 WNW 22 36 1019.9 - 0.0 - - - - - - -
28/09:30am 10.8 WNW 20 34 1019.8 - 0.0 - - - - - - -
28/09:00am 10.5 WNW 18 30 1020.1 - 6.6 - - - - - - -
28/08:30am 10.3 WNW 19 32 1019.5 - 6.6 - - - - - - -
28/08:00am 10.0 WNW 17 33 1019.2 - 6.6 - - - - - - -
28/07:30am 9.9 WNW 21 37 1018.9 - 6.6 - - - - - - -
28/07:00am 9.9 WNW 24 36 1018.6 - 6.6 - - - - - - -
28/06:30am 9.8 WNW 17 30 1018.6 - 6.6 - - - - - - -
28/06:00am 9.8 WNW 23 35 1018.4 - 6.6 - - - - - - -
28/05:30am 9.9 WNW 22 39 1017.6 - 6.6 - - - - - - -
28/05:00am 9.9 WNW 24 35 1017.4 - 6.6 - - - - - - -
28/04:30am 10.0 WNW 22 33 1017.4 - 6.6 - - - - - - -
28/04:00am 10.0 WNW 21 41 1017.4 - 6.6 - - - - - - -
28/03:36am 10.2 WNW 15 32 1017.8 - 6.6 - - - - - - -
28/03:30am 10.1 W 13 25 1018.0 - 6.6 - - - - - - -
28/03:04am 10.0 NW 15 29 1018.0 - 6.6 - - - - - - -
28/03:00am 10.1 WNW 13 29 1018.1 - 6.6 - - - - - - -
28/02:30am 10.1 WNW 18 29 1017.9 - 6.6 - - - - - - -
28/02:00am 10.4 WNW 18 34 1017.8 - 6.6 - - - - - - -
28/01:33am 10.4 WNW 16 28 1017.6 - 6.6 - - - - - - -
28/01:30am 10.4 WNW 16 25 1017.7 - 6.6 - - - - - - -
28/01:00am 10.6 WNW 17 33 1017.7 - 6.4 - - - - - - -
28/12:30am 10.2 WNW 21 31 1017.8 - 6.4 - - - - - - -
28/12:00am 9.7 NW 15 29 1018.1 - 5.8 - - - - - - -
 
Date/Time
EST
Temp
°C
Wind Pressure Rain since
9am
mm
Weather Cloud Vis
km
Sea
Height
m
Swell
Dir  Spd
kts
Gust
kts
hPa Trend Height
m
Period
s
Dir
27/11:33pm 9.9 WNW 15 30 1018.0 - 5.4 - - - - - - -
27/11:30pm 10.0 WNW 14 30 1017.7 - 5.2 - - - - - - -
27/11:00pm 10.2 WNW 19 30 1017.7 - 5.2 - - - - - - -
27/10:39pm 10.2 WNW 15 27 1017.8 - 5.2 - - - - - - -
27/10:30pm 10.3 WNW 14 23 1017.6 - 5.2 - - - - - - -
27/10:14pm 10.1 NW 15 25 1017.7 - 5.2 - - - - - - -
27/10:00pm 10.7 WNW 17 26 1017.4 - 4.8 - - - - - - -
27/09:30pm 11.3 W 20 27 1017.3 - 4.8 - - - - - - -
27/09:13pm 11.0 W 19 29 1017.2 - 4.8 - - - - - - -
27/09:00pm 11.0 W 21 30 1017.3 - 4.8 - - - - - - -
27/08:49pm 11.2 W 17 27 1017.0 - 4.8 - - - - - - -
27/08:30pm 10.7 W 21 28 1017.0 - 4.8 - - - - - - -
27/08:07pm 11.3 W 16 26 1016.9 - 4.6 - - - - - - -
27/08:00pm 11.0 W 15 22 1017.1 - 4.6 - - - - - - -
27/07:36pm 10.9 W 16 26 1016.9 - 4.6 - - - - - - -
27/07:30pm 11.0 W 18 26 1016.9 - 4.6 - - - - - - -
27/07:00pm 11.2 W 17 27 1016.5 - 4.6 - - - - - - -
27/06:33pm 10.9 W 15 25 1016.3 - 4.6 - - - - - - -
27/06:30pm 10.8 W 16 25 1016.1 - 4.6 - - - - - - -
27/06:05pm 10.9 W 18 30 1015.7 - 4.6 - - - - - - -
27/06:00pm 11.0 W 16 25 1015.8 - 4.6 - - - - - - -
27/05:32pm 11.0 W 16 27 1015.4 - 4.6 - - - - - - -
27/05:30pm 10.8 W 14 21 1015.5 - 4.6 - - - - - - -
27/05:00pm 10.9 W 15 23 1015.3 - 4.6 - - - - - - -

Other Formats:

Comma delimited format used in spreadsheet applications
http://www.bom.gov.au/fwo/IDV60701/IDV60701.94893.axf

JavaScript Object Notation format (JSON) in row-major order
http://www.bom.gov.au/fwo/IDV60701/IDV60701.94893.json